Pagrindinis puslapis
METAR-TAF:

METAR-TAF

Oro uostai :

Pantelerija, Italija

platuma: 36-49N, ilguma: 011-58E, Aukštis: 191 m

Dabartinis oras

Ataskaita buvo paskelbta 3 valandos ir 44 minutes, ne 18:50 UTC
Vėjas 8 kt iš Vakarų
Temperatūra 13°C
Drėgmė 88%
Slėgis 1024 hPa
Matomumas 10 km arba daugiau
Mažai debesys ne aukštis 1300 ft

METAR: LICG 271850Z 28008KT 9999 FEW013 13/11 Q1024

Laikas: 23:34 (22:34 UTC)

Prognozė

Ataskaita buvo paskelbta 5 valandos ir 34 minutes, ne 17:00 UTC
Prognozė galioja nuo 27 metu 18 UTC su 28 metu 03 UTC
Vėjas 13 kt iš Vakarų/Šiaurės Vakarų
Matomumas: 7000 m
Mažai debesys ne aukštis 1800 ft

TAF: LICG 271700Z 2718/2803 29013KT 7000 FEW018

Orai ataskaitas ir orų prognozės (METAR, TAF).

turimą stotys yra geltonos ir raudonos taškus žemėlapyje.

Perkelti pele per norėdami pamatyti stoties vardą.

Tada spustelėkite, norėdami matyti oro stebėjimo ir prognozės.

Norėdami pakeisti žemėlapį: spustelėkite ant žalios mygtukų su juodo kryžiaus žemyn,; žalią mygtuką su brūkšneliu, jei norite nutolinti; arba žalių rodyklių gretimoms žemėlapius.


METAR-TAF: